createdAt,value
2022-12-11T00:00:49.773Z,20.90
2022-12-11T00:05:55.851Z,19.30
2022-12-11T00:11:03.556Z,19.27
2022-12-11T00:16:09.059Z,19.53
2022-12-11T00:21:17.235Z,19.53
2022-12-11T00:26:25.151Z,20.43
2022-12-11T00:31:30.135Z,20.17
2022-12-11T00:36:35.245Z,19.20
2022-12-11T00:41:42.700Z,19.43
2022-12-11T00:46:48.965Z,20.43
2022-12-11T00:51:53.948Z,19.20
2022-12-11T00:57:01.431Z,18.10
2022-12-11T01:02:06.357Z,19.57
2022-12-11T01:07:11.259Z,20.77
2022-12-11T01:12:18.776Z,19.30
2022-12-11T01:17:23.735Z,19.20
2022-12-11T01:22:28.829Z,18.47
2022-12-11T01:27:36.617Z,20.23
2022-12-11T01:32:41.527Z,20.80
2022-12-11T01:37:46.541Z,20.90
2022-12-11T01:42:54.103Z,20.83
2022-12-11T01:48:03.739Z,19.87
2022-12-11T01:53:11.688Z,18.70
2022-12-11T01:58:20.578Z,19.40
2022-12-11T02:03:25.987Z,18.53
2022-12-11T02:08:34.184Z,17.50
2022-12-11T02:13:47.831Z,17.47
2022-12-11T02:18:59.338Z,17.40
2022-12-11T02:24:18.618Z,16.47
2022-12-11T02:29:33.430Z,17.17
2022-12-11T02:34:45.313Z,17.57
2022-12-11T02:39:53.680Z,17.10
2022-12-11T02:45:03.527Z,16.10
2022-12-11T02:50:14.310Z,17.83
2022-12-11T02:55:20.354Z,17.80
2022-12-11T03:00:27.846Z,17.07
2022-12-11T03:05:33.531Z,16.13
2022-12-11T03:10:38.597Z,16.43
2022-12-11T03:15:58.296Z,16.73
2022-12-11T03:21:09.495Z,16.57
2022-12-11T03:26:16.481Z,16.80
2022-12-11T03:31:29.924Z,16.27
2022-12-11T03:36:37.814Z,15.77
2022-12-11T03:41:44.795Z,16.03
2022-12-11T03:46:55.291Z,15.90
2022-12-11T03:52:03.573Z,16.10
2022-12-11T03:57:11.532Z,15.90
2022-12-11T04:02:19.122Z,15.70
2022-12-11T04:07:24.015Z,16.70
2022-12-11T04:12:29.012Z,15.83
2022-12-11T04:17:51.352Z,15.63
2022-12-11T04:23:08.683Z,14.67
2022-12-11T04:28:13.650Z,15.53
2022-12-11T04:33:21.185Z,13.20
2022-12-11T04:38:26.319Z,14.87
2022-12-11T04:43:31.485Z,14.33
2022-12-11T04:48:40.276Z,14.97
2022-12-11T04:53:45.892Z,14.47
2022-12-11T04:58:51.471Z,14.40
2022-12-11T05:03:59.015Z,14.77
2022-12-11T05:09:06.481Z,15.20
2022-12-11T05:14:11.763Z,13.67
2022-12-11T05:19:21.237Z,15.43
2022-12-11T05:24:26.130Z,14.73
2022-12-11T05:29:31.237Z,14.70
2022-12-11T05:34:38.777Z,14.40
2022-12-11T05:39:43.742Z,14.90
2022-12-11T05:44:49.757Z,14.77
2022-12-11T05:49:57.222Z,15.80
2022-12-11T05:55:02.425Z,16.40
2022-12-11T06:00:08.012Z,14.57
2022-12-11T06:05:15.600Z,14.40
2022-12-11T06:10:20.692Z,14.87
2022-12-11T06:15:26.189Z,13.67
2022-12-11T06:20:34.104Z,14.73
2022-12-11T06:25:41.425Z,15.07
2022-12-11T06:30:46.582Z,15.97
2022-12-11T06:35:56.858Z,15.27
2022-12-11T06:41:07.793Z,14.77
2022-12-11T06:46:16.081Z,15.20
2022-12-11T06:51:25.853Z,15.43
2022-12-11T06:56:30.795Z,15.33
2022-12-11T07:01:39.505Z,17.77
2022-12-11T07:06:49.526Z,16.07
2022-12-11T07:11:58.464Z,16.70
2022-12-11T07:17:03.827Z,16.67
2022-12-11T07:22:11.477Z,17.73
2022-12-11T07:27:17.709Z,16.83
2022-12-11T07:32:23.238Z,17.27
2022-12-11T07:37:31.257Z,17.93
2022-12-11T07:42:39.255Z,19.27
2022-12-11T07:47:48.280Z,18.10
2022-12-11T07:52:55.921Z,18.10
2022-12-11T07:58:01.377Z,16.83
2022-12-11T08:03:06.853Z,16.57
2022-12-11T08:08:14.677Z,18.10
2022-12-11T08:13:19.810Z,15.57
2022-12-11T08:18:24.685Z,15.50
2022-12-11T08:23:32.199Z,15.53
2022-12-11T08:28:37.434Z,13.53
2022-12-11T08:33:43.072Z,13.53
2022-12-11T08:38:50.785Z,14.23
2022-12-11T08:43:57.796Z,14.63
2022-12-11T08:49:05.441Z,15.70
2022-12-11T08:54:13.721Z,13.70
2022-12-11T08:59:21.377Z,14.60
2022-12-11T09:04:26.719Z,13.10
2022-12-11T09:09:34.579Z,12.57
2022-12-11T09:14:39.739Z,11.93
2022-12-11T09:19:47.240Z,13.00
2022-12-11T09:24:55.259Z,11.77
2022-12-11T09:30:00.139Z,11.77
2022-12-11T09:35:05.946Z,11.23
2022-12-11T09:40:18.853Z,12.47
2022-12-11T09:45:24.424Z,12.37
2022-12-11T09:50:33.399Z,12.23
2022-12-11T09:55:52.773Z,12.13
2022-12-11T10:01:05.616Z,12.53
2022-12-11T10:06:21.250Z,13.70
2022-12-11T10:11:56.096Z,13.63
2022-12-11T10:17:05.629Z,12.27
2022-12-11T10:22:21.525Z,12.77
2022-12-11T10:27:34.464Z,13.43
2022-12-11T10:32:46.289Z,12.23
2022-12-11T10:37:51.532Z,12.17
2022-12-11T10:43:01.340Z,13.60
2022-12-11T10:48:14.206Z,13.57
2022-12-11T10:53:24.473Z,11.57
2022-12-11T10:58:36.867Z,12.50
2022-12-11T11:03:57.719Z,14.77
2022-12-11T11:09:04.919Z,13.53
2022-12-11T11:14:19.738Z,14.53
2022-12-11T11:19:28.349Z,13.10
2022-12-11T11:24:40.407Z,13.60
2022-12-11T11:29:57.479Z,14.00
2022-12-11T11:35:21.840Z,14.33
2022-12-11T11:40:33.029Z,13.77
2022-12-11T11:45:48.815Z,14.47
2022-12-11T11:50:59.651Z,13.00
2022-12-11T11:56:16.108Z,12.53
2022-12-11T12:01:24.315Z,14.30
2022-12-11T12:06:39.071Z,12.93
2022-12-11T12:11:52.468Z,12.80
2022-12-11T12:17:15.464Z,11.90
2022-12-11T12:22:36.232Z,12.77
2022-12-11T12:27:52.990Z,11.97
2022-12-11T12:33:16.974Z,11.67
2022-12-11T12:38:26.887Z,13.03
2022-12-11T12:43:51.262Z,11.10
2022-12-11T12:49:02.447Z,12.63
2022-12-11T12:54:12.572Z,12.67
2022-12-11T12:59:25.572Z,12.77
2022-12-11T13:04:56.068Z,11.83
2022-12-11T13:10:06.732Z,10.77
2022-12-11T13:15:33.102Z,12.17
2022-12-11T13:20:55.813Z,12.20
2022-12-11T13:26:05.147Z,12.70
2022-12-11T13:31:31.006Z,12.90
2022-12-11T13:36:41.085Z,12.70
2022-12-11T13:41:56.278Z,13.13
2022-12-11T13:47:06.093Z,13.60
2022-12-11T13:52:22.958Z,12.83
2022-12-11T13:57:29.760Z,12.87
2022-12-11T14:02:38.386Z,12.57
2022-12-11T14:07:52.023Z,14.30
2022-12-11T14:13:05.213Z,12.87
2022-12-11T14:18:21.138Z,13.87
2022-12-11T14:23:33.555Z,13.97
2022-12-11T14:28:41.145Z,14.43
2022-12-11T14:33:49.642Z,15.80
2022-12-11T14:39:00.833Z,14.80
2022-12-11T14:44:13.372Z,13.97
2022-12-11T14:49:27.800Z,12.70
2022-12-11T14:54:38.697Z,14.87
2022-12-11T14:59:48.751Z,13.03
2022-12-11T15:05:06.911Z,14.57
2022-12-11T15:10:41.224Z,15.53
2022-12-11T15:15:49.133Z,14.27
2022-12-11T15:20:59.548Z,13.00
2022-12-11T15:26:07.624Z,14.07
2022-12-11T15:31:30.775Z,13.17
2022-12-11T15:36:38.503Z,13.47
2022-12-11T15:41:46.636Z,14.97
2022-12-11T15:46:51.580Z,15.43
2022-12-11T15:51:56.477Z,14.77
2022-12-11T15:57:09.446Z,13.53
2022-12-11T16:02:19.226Z,14.43
2022-12-11T16:07:27.660Z,13.37
2022-12-11T16:12:35.892Z,14.80
2022-12-11T16:17:41.535Z,13.83
2022-12-11T16:22:46.521Z,14.10
2022-12-11T16:27:54.010Z,13.77
2022-12-11T16:32:59.263Z,13.07
2022-12-11T16:38:04.230Z,14.03
2022-12-11T16:43:12.551Z,14.23
2022-12-11T16:48:17.481Z,13.90
2022-12-11T16:53:22.510Z,13.77
2022-12-11T16:58:30.094Z,14.03
2022-12-11T17:03:35.355Z,15.07
2022-12-11T17:08:43.659Z,14.43
2022-12-11T17:13:56.130Z,14.63
2022-12-11T17:19:03.382Z,13.63
2022-12-11T17:24:11.154Z,13.63
2022-12-11T17:29:28.622Z,14.73
2022-12-11T17:34:38.349Z,14.67
2022-12-11T17:39:43.780Z,15.27
2022-12-11T17:44:53.149Z,13.80
2022-12-11T17:50:00.110Z,13.77
2022-12-11T17:55:05.063Z,14.00
2022-12-11T18:00:14.280Z,13.37
2022-12-11T18:05:19.334Z,14.90
2022-12-11T18:10:24.625Z,14.90
2022-12-11T18:15:32.343Z,13.87
2022-12-11T18:20:39.949Z,14.83
2022-12-11T18:25:45.097Z,14.83
2022-12-11T18:30:56.573Z,14.20
2022-12-11T18:36:02.303Z,13.93
2022-12-11T18:41:09.750Z,13.70
2022-12-11T18:46:29.811Z,13.50
2022-12-11T18:51:38.047Z,14.30
2022-12-11T18:56:43.694Z,13.77
2022-12-11T19:01:51.960Z,15.00
2022-12-11T19:06:57.669Z,13.37
2022-12-11T19:12:04.976Z,13.63
2022-12-11T19:17:13.695Z,14.67
2022-12-11T19:22:21.475Z,15.00
2022-12-11T19:27:27.387Z,13.90
2022-12-11T19:32:44.316Z,15.13
2022-12-11T19:37:50.589Z,13.93
2022-12-11T19:42:59.412Z,14.93
2022-12-11T19:48:08.393Z,15.33
2022-12-11T19:53:14.404Z,14.43
2022-12-11T19:58:20.342Z,15.20
2022-12-11T20:03:31.615Z,14.10
2022-12-11T20:08:46.257Z,14.47
2022-12-11T20:13:52.499Z,16.20
2022-12-11T20:19:01.879Z,14.20
2022-12-11T20:24:10.199Z,15.17
2022-12-11T20:29:15.908Z,14.07
2022-12-11T20:34:24.223Z,14.67
2022-12-11T20:39:29.884Z,14.63
2022-12-11T20:44:49.460Z,15.63
2022-12-11T20:50:04.014Z,15.33
2022-12-11T20:55:13.197Z,15.43
2022-12-11T21:00:20.763Z,17.27
2022-12-11T21:05:32.118Z,15.73
2022-12-11T21:10:40.086Z,14.13
2022-12-11T21:15:46.425Z,15.90
2022-12-11T21:21:01.531Z,15.40
2022-12-11T21:26:08.243Z,15.67
2022-12-11T21:31:16.476Z,16.20
2022-12-11T21:36:27.786Z,15.50
2022-12-11T21:41:32.980Z,16.33
2022-12-11T21:46:40.714Z,15.37
2022-12-11T21:51:48.427Z,15.37
2022-12-11T21:56:54.737Z,17.20
2022-12-11T22:02:00.429Z,16.27
2022-12-11T22:07:08.056Z,16.20
2022-12-11T22:12:20.202Z,16.80
2022-12-11T22:17:27.580Z,16.53
2022-12-11T22:22:36.330Z,18.30
2022-12-11T22:27:45.123Z,17.20
2022-12-11T22:32:50.074Z,15.67
2022-12-11T22:37:57.883Z,17.97
2022-12-11T22:43:02.899Z,17.30
2022-12-11T22:48:08.713Z,17.97
2022-12-11T22:53:16.257Z,17.37
2022-12-11T22:58:22.071Z,17.17
2022-12-11T23:03:27.156Z,16.53
2022-12-11T23:08:35.016Z,15.87
2022-12-11T23:13:40.231Z,16.20
2022-12-11T23:18:46.993Z,16.20
2022-12-11T23:23:55.323Z,16.90
2022-12-11T23:29:02.065Z,16.23
2022-12-11T23:34:07.670Z,15.93
2022-12-11T23:39:15.591Z,17.33
2022-12-11T23:44:20.627Z,16.67
2022-12-11T23:49:25.513Z,15.97
2022-12-11T23:54:33.371Z,16.17
2022-12-11T23:59:39.521Z,17.03
